createdAt,value
2019-05-14T00:00:42.795Z,2.03
2019-05-14T00:03:12.833Z,1.80
2019-05-14T00:05:42.901Z,1.60
2019-05-14T00:08:12.939Z,2.07
2019-05-14T00:10:42.879Z,1.80
2019-05-14T00:13:12.843Z,2.07
2019-05-14T00:15:42.840Z,1.50
2019-05-14T00:18:12.740Z,1.93
2019-05-14T00:20:42.689Z,2.10
2019-05-14T00:23:12.661Z,1.90
2019-05-14T00:25:42.661Z,1.97
2019-05-14T00:28:12.693Z,2.00
2019-05-14T00:30:42.697Z,1.50
2019-05-14T00:33:12.661Z,2.07
2019-05-14T00:35:42.728Z,2.60
2019-05-14T00:38:12.729Z,2.20
2019-05-14T00:40:42.697Z,2.00
2019-05-14T00:43:12.768Z,2.37
2019-05-14T00:45:42.732Z,1.70
2019-05-14T00:48:13.037Z,2.30
2019-05-14T00:50:43.104Z,2.10
2019-05-14T00:53:13.105Z,1.77
2019-05-14T00:55:43.006Z,1.83
2019-05-14T00:58:12.944Z,2.03
2019-05-14T01:00:42.912Z,2.50
2019-05-14T01:03:12.917Z,2.40
2019-05-14T01:05:42.957Z,2.20
2019-05-14T01:08:13.120Z,1.93
2019-05-14T01:10:43.050Z,1.90
2019-05-14T01:13:13.029Z,2.07
2019-05-14T01:15:43.095Z,2.50
2019-05-14T01:18:13.075Z,2.10
2019-05-14T01:20:43.074Z,1.83
2019-05-14T01:23:13.108Z,2.07
2019-05-14T01:25:43.112Z,2.07
2019-05-14T01:28:13.079Z,2.30
2019-05-14T01:30:43.439Z,2.27
2019-05-14T01:33:13.417Z,2.50
2019-05-14T01:35:43.343Z,2.60
2019-05-14T01:38:13.237Z,2.40
2019-05-14T01:40:43.090Z,2.10
2019-05-14T01:43:13.061Z,2.20
2019-05-14T01:45:43.132Z,2.20
2019-05-14T01:48:13.107Z,2.30
2019-05-14T01:50:43.336Z,2.45
2019-05-14T01:53:13.592Z,1.90
2019-05-14T01:55:43.592Z,2.10
2019-05-14T01:58:13.852Z,2.45
2019-05-14T02:00:43.863Z,2.10
2019-05-14T02:03:13.784Z,2.43
2019-05-14T02:05:44.108Z,1.92
2019-05-14T02:08:14.113Z,2.43
2019-05-14T02:10:44.380Z,2.65
2019-05-14T02:13:14.472Z,2.10
2019-05-14T02:15:44.510Z,2.53
2019-05-14T02:18:14.514Z,2.40
2019-05-14T02:20:44.772Z,2.17
2019-05-14T02:23:14.780Z,2.27
2019-05-14T02:25:44.816Z,2.63
2019-05-14T02:28:14.821Z,2.63
2019-05-14T02:30:53.649Z,2.73
2019-05-14T02:33:19.231Z,2.35
2019-05-14T02:35:49.482Z,2.33
2019-05-14T02:38:20.198Z,2.47
2019-05-14T02:40:50.167Z,2.40
2019-05-14T02:43:20.458Z,2.47
2019-05-14T02:46:09.032Z,2.47
2019-05-14T02:48:22.704Z,2.30
2019-05-14T02:50:54.042Z,2.40
2019-05-14T02:53:24.041Z,2.40
2019-05-14T02:55:54.004Z,2.70
2019-05-14T02:58:24.007Z,2.20
2019-05-14T03:00:53.972Z,2.37
2019-05-14T03:03:24.339Z,2.20
2019-05-14T03:05:54.597Z,2.20
2019-05-14T03:08:24.890Z,2.50
2019-05-14T03:10:55.250Z,2.12
2019-05-14T03:13:25.546Z,2.55
2019-05-14T03:15:59.032Z,2.25
2019-05-14T03:18:29.571Z,2.20
2019-05-14T03:21:00.900Z,2.50
2019-05-14T03:23:31.524Z,2.85
2019-05-14T03:26:01.797Z,2.42
2019-05-14T03:28:32.080Z,2.05
2019-05-14T03:31:03.785Z,2.43
2019-05-14T03:33:34.551Z,2.42
2019-05-14T03:36:11.406Z,2.60
2019-05-14T03:38:39.649Z,2.45
2019-05-14T03:41:13.771Z,2.37
2019-05-14T03:43:41.645Z,2.42
2019-05-14T03:46:11.915Z,2.15
2019-05-14T03:48:42.227Z,2.50
2019-05-14T03:51:12.647Z,2.77
2019-05-14T03:53:56.895Z,2.80
2019-05-14T03:56:14.990Z,2.25
2019-05-14T03:58:49.242Z,2.52
2019-05-14T04:01:20.138Z,2.72
2019-05-14T04:03:50.728Z,2.87
2019-05-14T04:06:22.977Z,1.82
2019-05-14T04:08:54.473Z,3.27
2019-05-14T04:11:29.402Z,3.05
2019-05-14T04:14:01.310Z,2.50
2019-05-14T04:16:33.692Z,2.98
2019-05-14T04:19:05.437Z,3.45
2019-05-14T04:21:39.819Z,2.72
2019-05-14T04:24:11.967Z,2.83
2019-05-14T04:26:58.446Z,2.85
2019-05-14T04:29:19.639Z,2.70
2019-05-14T04:31:51.829Z,3.17
2019-05-14T04:34:22.141Z,3.17
2019-05-14T04:36:52.714Z,3.72
2019-05-14T04:39:23.124Z,3.98
2019-05-14T04:41:53.119Z,3.33
2019-05-14T04:44:23.258Z,3.00
2019-05-14T04:46:53.228Z,3.00
2019-05-14T04:49:23.470Z,4.17
2019-05-14T04:51:54.461Z,4.25
2019-05-14T04:54:24.564Z,3.10
2019-05-14T04:56:54.606Z,2.47
2019-05-14T04:59:24.607Z,3.33
2019-05-14T05:01:54.602Z,3.40
2019-05-14T05:04:24.536Z,2.93
2019-05-14T05:06:54.502Z,3.00
2019-05-14T05:09:24.500Z,2.80
2019-05-14T05:11:54.401Z,2.73
2019-05-14T05:14:24.397Z,3.00
2019-05-14T05:16:54.322Z,3.40
2019-05-14T05:19:24.505Z,3.60
2019-05-14T05:21:54.520Z,2.90
2019-05-14T05:24:24.524Z,2.73
2019-05-14T05:26:54.420Z,2.93
2019-05-14T05:29:24.284Z,2.27
2019-05-14T05:31:54.233Z,2.50
2019-05-14T05:34:24.059Z,2.60
2019-05-14T05:36:54.133Z,2.77
2019-05-14T05:39:24.171Z,2.27
2019-05-14T05:41:54.173Z,2.10
2019-05-14T05:44:24.147Z,2.23
2019-05-14T05:46:54.081Z,2.23
2019-05-14T05:49:24.048Z,2.03
2019-05-14T05:51:54.050Z,1.80
2019-05-14T05:54:23.956Z,2.23
2019-05-14T05:56:53.959Z,2.30
2019-05-14T05:59:23.956Z,1.77
2019-05-14T06:01:54.396Z,2.03
2019-05-14T06:04:24.451Z,2.20
2019-05-14T06:06:54.434Z,2.60
2019-05-14T06:09:24.380Z,2.13
2019-05-14T06:11:54.493Z,2.13
2019-05-14T06:14:24.541Z,2.40
2019-05-14T06:16:54.622Z,1.93
2019-05-14T06:19:24.598Z,2.00
2019-05-14T06:21:54.617Z,1.70
2019-05-14T06:24:24.579Z,1.70
2019-05-14T06:26:54.552Z,1.90
2019-05-14T06:29:24.453Z,1.80
2019-05-14T06:31:54.472Z,1.97
2019-05-14T06:34:24.469Z,2.20
2019-05-14T06:36:54.391Z,2.00
2019-05-14T06:39:24.454Z,1.90
2019-05-14T06:41:54.431Z,1.97
2019-05-14T06:44:24.310Z,1.90
2019-05-14T06:46:54.263Z,1.77
2019-05-14T06:49:24.342Z,1.73
2019-05-14T06:51:54.350Z,1.67
2019-05-14T06:54:24.328Z,1.57
2019-05-14T06:56:54.333Z,1.50
2019-05-14T06:59:24.238Z,2.30
2019-05-14T07:01:54.107Z,1.73
2019-05-14T07:04:24.010Z,1.80
2019-05-14T07:06:54.020Z,2.07
2019-05-14T07:09:23.923Z,2.27
2019-05-14T07:11:53.914Z,1.93
2019-05-14T07:14:25.046Z,1.83
2019-05-14T07:16:55.086Z,1.90
2019-05-14T07:19:25.118Z,1.93
2019-05-14T07:21:55.084Z,1.60
2019-05-14T07:24:25.177Z,1.70
2019-05-14T07:26:55.183Z,1.50
2019-05-14T07:29:25.247Z,1.67
2019-05-14T07:31:55.251Z,1.67
2019-05-14T07:34:25.318Z,1.70
2019-05-14T07:36:55.332Z,1.60
2019-05-14T07:39:25.320Z,1.50
2019-05-14T07:41:55.253Z,1.73
2019-05-14T07:44:25.336Z,1.97
2019-05-14T07:46:55.265Z,1.93
2019-05-14T07:49:25.192Z,1.30
2019-05-14T07:51:55.210Z,1.70
2019-05-14T07:54:28.162Z,1.70
2019-05-14T07:56:59.094Z,1.50
2019-05-14T07:59:30.566Z,1.47
2019-05-14T08:02:00.629Z,1.43
2019-05-14T08:04:32.049Z,1.43
2019-05-14T08:07:04.597Z,1.60
2019-05-14T08:09:38.996Z,1.50
2019-05-14T08:12:12.904Z,1.77
2019-05-14T08:14:57.919Z,1.70
2019-05-14T08:17:15.536Z,1.93
2019-05-14T08:19:46.318Z,1.50
2019-05-14T08:22:18.655Z,1.50
2019-05-14T08:24:49.100Z,1.40
2019-05-14T08:27:19.384Z,1.53
2019-05-14T08:29:49.358Z,1.63
2019-05-14T08:32:19.368Z,1.70
2019-05-14T08:34:49.347Z,1.63
2019-05-14T08:37:19.390Z,1.60
2019-05-14T08:39:49.353Z,1.50
2019-05-14T08:42:19.432Z,1.47
2019-05-14T08:44:51.451Z,2.03
2019-05-14T08:47:21.164Z,1.63
2019-05-14T08:49:51.238Z,1.67
2019-05-14T08:52:21.238Z,1.63
2019-05-14T08:55:05.588Z,1.73
2019-05-14T08:57:23.095Z,1.77
2019-05-14T08:59:53.641Z,1.80
2019-05-14T09:02:23.645Z,1.63
2019-05-14T09:04:55.103Z,1.77
2019-05-14T09:07:25.421Z,1.80
2019-05-14T09:09:55.389Z,1.60
2019-05-14T09:12:25.513Z,1.77
2019-05-14T09:14:55.515Z,1.60
2019-05-14T09:17:25.558Z,1.80
2019-05-14T09:20:05.799Z,1.87
2019-05-14T09:22:28.999Z,2.13
2019-05-14T09:25:00.042Z,2.30
2019-05-14T09:27:30.321Z,2.40
2019-05-14T09:30:00.377Z,2.00
2019-05-14T09:32:30.569Z,2.50
2019-05-14T09:35:00.569Z,2.60
2019-05-14T09:37:30.546Z,2.50
2019-05-14T09:40:00.622Z,2.40
2019-05-14T09:42:30.662Z,3.27
2019-05-14T09:45:00.808Z,2.50
2019-05-14T09:47:30.783Z,2.97
2019-05-14T09:50:15.286Z,2.70
2019-05-14T09:52:32.533Z,2.83
2019-05-14T09:55:02.686Z,2.60
2019-05-14T09:57:32.726Z,2.43
2019-05-14T10:00:05.914Z,2.27
2019-05-14T10:02:39.017Z,2.50
2019-05-14T10:05:09.885Z,2.40
2019-05-14T10:07:39.869Z,2.20
2019-05-14T10:10:10.493Z,2.30
2019-05-14T10:12:51.770Z,2.30
2019-05-14T10:15:12.964Z,2.20
2019-05-14T10:17:43.045Z,1.97
2019-05-14T10:20:13.948Z,2.20
2019-05-14T10:22:44.342Z,2.17
2019-05-14T10:25:14.684Z,2.20
2019-05-14T10:27:48.390Z,2.20
2019-05-14T10:30:18.274Z,2.37
2019-05-14T10:32:49.288Z,2.60
2019-05-14T10:35:19.710Z,2.90
2019-05-14T10:37:49.713Z,2.27
2019-05-14T10:40:19.691Z,2.00
2019-05-14T10:42:49.781Z,2.50
2019-05-14T10:45:20.814Z,2.47
2019-05-14T10:47:50.829Z,2.50
2019-05-14T10:50:20.812Z,1.90
2019-05-14T10:52:50.811Z,1.90
2019-05-14T10:55:20.782Z,2.60
2019-05-14T10:57:54.205Z,1.90
2019-05-14T11:00:23.849Z,2.20
2019-05-14T11:02:54.019Z,2.20
2019-05-14T11:05:24.722Z,2.37
2019-05-14T11:07:55.686Z,2.20
2019-05-14T11:10:26.130Z,2.10
2019-05-14T11:12:59.097Z,2.10
2019-05-14T11:15:28.560Z,2.10
2019-05-14T11:17:59.540Z,2.13
2019-05-14T11:20:31.143Z,2.67
2019-05-14T11:23:01.677Z,2.10
2019-05-14T11:25:31.671Z,2.30
2019-05-14T11:28:01.674Z,1.93
2019-05-14T11:30:31.651Z,2.20
2019-05-14T11:33:01.800Z,2.00
2019-05-14T11:35:31.833Z,2.37
2019-05-14T11:38:02.007Z,2.10
2019-05-14T11:40:32.033Z,1.80
2019-05-14T11:43:02.015Z,2.10
2019-05-14T11:45:32.016Z,2.23
2019-05-14T11:48:01.913Z,2.07
2019-05-14T11:50:33.316Z,2.03
2019-05-14T11:53:03.289Z,1.90
2019-05-14T11:55:33.299Z,2.33
2019-05-14T11:58:03.271Z,1.67
2019-05-14T12:00:33.416Z,1.67
2019-05-14T12:03:03.384Z,1.60
2019-05-14T12:05:33.391Z,1.70
2019-05-14T12:08:03.365Z,1.57
2019-05-14T12:10:33.448Z,1.80
2019-05-14T12:13:03.417Z,1.50
2019-05-14T12:15:34.693Z,1.90
2019-05-14T12:18:04.733Z,2.03
2019-05-14T12:20:34.741Z,2.20
2019-05-14T12:23:04.721Z,1.87
2019-05-14T12:25:34.799Z,2.00
2019-05-14T12:28:04.873Z,2.03
2019-05-14T12:30:34.867Z,1.80
2019-05-14T12:33:05.973Z,1.70
2019-05-14T12:35:41.367Z,1.97
2019-05-14T12:38:18.772Z,1.60
2019-05-14T12:40:50.858Z,1.80
2019-05-14T12:43:23.500Z,1.90
2019-05-14T12:45:54.357Z,1.87
2019-05-14T12:48:29.508Z,1.90
2019-05-14T12:53:31.037Z,1.98
2019-05-14T12:56:01.368Z,1.53
2019-05-14T12:58:31.982Z,1.93
2019-05-14T13:01:02.134Z,1.80
2019-05-14T13:03:32.569Z,2.60
2019-05-14T13:06:04.125Z,1.70
2019-05-14T13:08:34.210Z,2.00
2019-05-14T13:11:04.302Z,1.60
2019-05-14T13:13:35.322Z,1.70
2019-05-14T13:16:08.250Z,1.83
2019-05-14T13:18:39.029Z,2.30
2019-05-14T13:21:09.634Z,1.87
2019-05-14T13:23:40.445Z,1.90
2019-05-14T13:26:11.629Z,1.80
2019-05-14T13:28:42.257Z,1.80
2019-05-14T13:31:29.308Z,1.60
2019-05-14T13:34:01.998Z,1.33
2019-05-14T13:36:33.111Z,1.20
2019-05-14T13:39:08.980Z,0.93
2019-05-14T13:41:41.571Z,0.83
2019-05-14T13:44:21.232Z,0.83
2019-05-14T13:46:43.175Z,1.10
2019-05-14T13:49:13.331Z,1.20
2019-05-14T13:51:44.625Z,1.10
2019-05-14T13:54:19.125Z,1.40
2019-05-14T13:56:51.107Z,1.60
2019-05-14T13:59:44.738Z,1.60
2019-05-14T14:02:18.933Z,1.30
2019-05-14T14:04:48.774Z,1.60
2019-05-14T14:07:19.202Z,1.70
2019-05-14T14:09:50.173Z,1.60
2019-05-14T14:12:20.151Z,1.27
2019-05-14T14:14:50.159Z,1.40
2019-05-14T14:17:20.706Z,1.53
2019-05-14T14:19:50.850Z,1.40
2019-05-14T14:22:20.926Z,1.30
2019-05-14T14:24:50.923Z,1.30
2019-05-14T14:27:20.891Z,1.57
2019-05-14T14:29:50.902Z,1.50
2019-05-14T14:32:21.301Z,1.33
2019-05-14T14:34:51.332Z,1.50
2019-05-14T14:37:22.436Z,1.30
2019-05-14T14:39:52.575Z,1.10
2019-05-14T14:42:22.622Z,1.10
2019-05-14T14:44:52.700Z,1.10
2019-05-14T14:47:22.668Z,1.23
2019-05-14T14:49:52.671Z,1.20
2019-05-14T14:52:22.726Z,1.43
2019-05-14T14:54:52.621Z,1.50
2019-05-14T14:57:23.072Z,1.17
2019-05-14T14:59:56.193Z,1.10
2019-05-14T15:02:28.684Z,1.30
2019-05-14T15:04:59.592Z,1.33
2019-05-14T15:07:30.380Z,1.50
2019-05-14T15:10:00.510Z,1.43
2019-05-14T15:12:30.617Z,1.30
2019-05-14T15:15:00.731Z,1.23
2019-05-14T15:17:30.870Z,1.13
2019-05-14T15:20:00.949Z,1.33
2019-05-14T15:22:31.422Z,1.17
2019-05-14T15:25:01.916Z,1.30
2019-05-14T15:27:32.466Z,1.20
2019-05-14T15:30:02.662Z,1.20
2019-05-14T15:32:32.883Z,1.00
2019-05-14T15:35:03.908Z,1.30
2019-05-14T15:37:34.477Z,1.20
2019-05-14T15:40:08.862Z,1.33
2019-05-14T15:42:39.714Z,1.30
2019-05-14T15:45:11.618Z,1.40
2019-05-14T15:47:41.758Z,1.17
2019-05-14T15:50:11.826Z,1.30
2019-05-14T15:52:42.506Z,1.60
2019-05-14T15:55:14.413Z,1.40
2019-05-14T15:57:46.405Z,1.10
2019-05-14T16:00:19.753Z,1.23
2019-05-14T16:02:50.522Z,1.40
2019-05-14T16:05:23.627Z,1.30
2019-05-14T16:07:53.830Z,1.20
2019-05-14T16:10:23.876Z,0.93
2019-05-14T16:12:53.969Z,1.00
2019-05-14T16:15:24.037Z,1.00
2019-05-14T16:18:07.484Z,1.07
2019-05-14T16:20:26.033Z,1.07
2019-05-14T16:22:58.828Z,1.20
2019-05-14T16:25:29.727Z,1.13
2019-05-14T16:27:59.766Z,1.30
2019-05-14T16:30:29.803Z,1.43
2019-05-14T16:32:59.964Z,1.20
2019-05-14T16:35:32.163Z,1.20
2019-05-14T16:38:02.167Z,1.33
2019-05-14T16:40:32.210Z,1.50
2019-05-14T16:43:02.529Z,1.13
2019-05-14T16:45:34.425Z,1.30
2019-05-14T16:48:04.412Z,1.17
2019-05-14T16:50:34.526Z,1.13
2019-05-14T16:53:04.498Z,1.20
2019-05-14T16:55:34.498Z,1.70
2019-05-14T16:58:04.539Z,1.27
2019-05-14T17:00:34.881Z,1.00
2019-05-14T17:03:05.271Z,0.90
2019-05-14T17:05:35.270Z,1.20
2019-05-14T17:08:05.308Z,1.00
2019-05-14T17:10:35.315Z,1.07
2019-05-14T17:13:05.354Z,1.43
2019-05-14T17:15:35.325Z,0.87
2019-05-14T17:18:05.401Z,1.23
2019-05-14T17:20:35.439Z,1.27
2019-05-14T17:23:05.589Z,1.13
2019-05-14T17:25:35.591Z,1.20
2019-05-14T17:28:05.568Z,1.17
2019-05-14T17:30:35.571Z,1.20
2019-05-14T17:33:05.860Z,1.30
2019-05-14T17:35:38.927Z,1.10
2019-05-14T17:38:09.419Z,1.00
2019-05-14T17:40:39.794Z,1.03
2019-05-14T17:43:10.243Z,1.20
2019-05-14T17:45:40.331Z,1.10
2019-05-14T17:48:10.310Z,1.20
2019-05-14T17:50:40.378Z,1.20
